createdAt,value
2018-12-12T00:01:35.193Z,3.60
2018-12-12T00:04:06.250Z,4.20
2018-12-12T00:06:37.300Z,3.80
2018-12-12T00:09:07.436Z,4.93
2018-12-12T00:11:37.447Z,9.20
2018-12-12T00:14:06.399Z,6.30
2018-12-12T00:16:35.379Z,3.83
2018-12-12T00:19:04.342Z,3.40
2018-12-12T00:21:33.306Z,3.17
2018-12-12T00:24:02.262Z,3.23
2018-12-12T00:26:31.213Z,3.27
2018-12-12T00:29:00.187Z,3.47
2018-12-12T00:31:29.207Z,3.20
2018-12-12T00:33:58.149Z,3.30
2018-12-12T00:36:27.072Z,3.03
2018-12-12T00:38:56.064Z,2.90
2018-12-12T00:41:25.042Z,3.30
2018-12-12T00:43:54.093Z,3.10
2018-12-12T00:46:23.206Z,3.27
2018-12-12T00:48:52.146Z,3.07
2018-12-12T00:51:21.081Z,2.93
2018-12-12T00:53:50.024Z,3.10
2018-12-12T00:56:18.914Z,2.87
2018-12-12T00:58:47.585Z,2.70
2018-12-12T01:01:16.505Z,2.70
2018-12-12T01:03:45.474Z,2.90
2018-12-12T01:06:14.394Z,2.67
2018-12-12T01:08:46.372Z,2.27
2018-12-12T01:11:20.891Z,2.10
2018-12-12T01:13:49.854Z,2.40
2018-12-12T01:16:18.773Z,2.50
2018-12-12T01:18:47.308Z,2.30
2018-12-12T01:21:16.250Z,17.53
2018-12-12T01:23:45.239Z,4.60
2018-12-12T01:26:14.176Z,3.40
2018-12-12T01:28:43.142Z,2.80
2018-12-12T01:31:12.166Z,2.40
2018-12-12T01:33:41.079Z,2.30
2018-12-12T01:36:10.018Z,2.70
2018-12-12T01:38:38.936Z,2.43
2018-12-12T01:41:07.533Z,2.67
2018-12-12T01:43:36.508Z,2.60
2018-12-12T01:46:05.632Z,2.37
2018-12-12T01:48:34.729Z,2.60
2018-12-12T01:51:03.689Z,2.70
2018-12-12T01:53:33.153Z,2.50
2018-12-12T01:56:02.211Z,2.40
2018-12-12T01:58:31.217Z,2.77
2018-12-12T02:01:00.132Z,2.60
2018-12-12T02:03:29.091Z,2.60
2018-12-12T02:05:58.028Z,2.73
2018-12-12T02:08:26.663Z,2.80
2018-12-12T02:10:55.739Z,2.47
2018-12-12T02:13:34.846Z,2.83
2018-12-12T02:16:05.269Z,2.60
2018-12-12T02:18:35.566Z,2.60
2018-12-12T02:21:04.534Z,2.80
2018-12-12T02:23:33.562Z,2.67
2018-12-12T02:26:02.543Z,2.77
2018-12-12T02:28:31.501Z,2.30
2018-12-12T02:31:00.451Z,2.40
2018-12-12T02:33:29.442Z,2.83
2018-12-12T02:35:58.428Z,2.50
2018-12-12T02:38:27.364Z,2.80
2018-12-12T02:40:55.936Z,2.57
2018-12-12T02:43:25.068Z,2.90
2018-12-12T02:45:53.975Z,2.67
2018-12-12T02:48:23.112Z,2.60
2018-12-12T02:50:52.096Z,2.87
2018-12-12T02:53:20.634Z,2.90
2018-12-12T02:55:49.249Z,3.37
2018-12-12T02:58:18.218Z,3.00
2018-12-12T03:00:47.258Z,2.40
2018-12-12T03:03:16.245Z,2.40
2018-12-12T03:05:45.289Z,2.40
2018-12-12T03:08:14.241Z,2.40
2018-12-12T03:10:43.328Z,2.80
2018-12-12T03:13:11.907Z,2.70
2018-12-12T03:15:40.509Z,2.43
2018-12-12T03:18:09.525Z,2.70
2018-12-12T03:20:43.405Z,2.30
2018-12-12T03:23:12.293Z,2.40
2018-12-12T03:25:41.331Z,2.47
2018-12-12T03:28:10.542Z,2.30
2018-12-12T03:30:39.773Z,2.30
2018-12-12T03:33:08.745Z,2.37
2018-12-12T03:35:37.692Z,2.47
2018-12-12T03:38:06.377Z,3.40
2018-12-12T03:40:35.376Z,3.03
2018-12-12T03:43:04.417Z,2.77
2018-12-12T03:45:33.368Z,2.90
2018-12-12T03:48:02.256Z,2.67
2018-12-12T03:50:31.207Z,2.80
2018-12-12T03:53:00.150Z,2.43
2018-12-12T03:55:29.028Z,2.80
2018-12-12T03:57:57.631Z,2.73
2018-12-12T04:00:26.606Z,2.50
2018-12-12T04:02:56.564Z,2.30
2018-12-12T04:05:25.154Z,2.37
2018-12-12T04:07:54.039Z,2.27
2018-12-12T04:10:23.392Z,2.40
2018-12-12T04:12:52.292Z,2.20
2018-12-12T04:15:20.908Z,2.20
2018-12-12T04:17:49.462Z,2.10
2018-12-12T04:20:18.326Z,2.63
2018-12-12T04:22:47.277Z,2.50
2018-12-12T04:25:16.266Z,2.23
2018-12-12T04:27:45.216Z,2.27
2018-12-12T04:30:14.198Z,2.20
2018-12-12T04:32:43.185Z,2.20
2018-12-12T04:35:13.061Z,2.23
2018-12-12T04:37:41.982Z,2.50
2018-12-12T04:40:13.165Z,2.90
2018-12-12T04:42:42.912Z,2.57
2018-12-12T04:45:12.146Z,2.40
2018-12-12T04:47:43.050Z,2.30
2018-12-12T04:50:11.697Z,2.60
2018-12-12T04:52:41.255Z,2.40
2018-12-12T04:55:11.274Z,2.83
2018-12-12T04:57:44.827Z,3.50
2018-12-12T05:00:14.001Z,3.37
2018-12-12T05:02:43.183Z,3.80
2018-12-12T05:05:12.245Z,3.33
2018-12-12T05:07:42.316Z,3.27
2018-12-12T05:10:11.019Z,3.60
2018-12-12T05:12:40.074Z,3.20
2018-12-12T05:15:09.183Z,3.10
2018-12-12T05:17:38.105Z,3.23
2018-12-12T05:20:06.690Z,3.60
2018-12-12T05:22:35.312Z,3.47
2018-12-12T05:25:04.043Z,3.67
2018-12-12T05:27:33.016Z,3.20
2018-12-12T05:30:01.909Z,3.00
2018-12-12T05:32:32.034Z,3.77
2018-12-12T05:35:00.679Z,3.50
2018-12-12T05:37:29.669Z,3.03
2018-12-12T05:39:58.311Z,3.40
2018-12-12T05:42:27.297Z,3.37
2018-12-12T05:44:56.293Z,3.13
2018-12-12T05:47:25.261Z,3.37
2018-12-12T05:49:54.141Z,3.20
2018-12-12T05:52:23.247Z,4.40
2018-12-12T05:54:52.207Z,5.57
2018-12-12T05:57:21.166Z,5.77
2018-12-12T05:59:50.655Z,3.97
2018-12-12T06:02:19.734Z,6.80
2018-12-12T06:04:48.711Z,5.63
2018-12-12T06:07:17.669Z,5.73
2018-12-12T06:09:46.554Z,5.33
2018-12-12T06:12:15.535Z,5.30
2018-12-12T06:14:44.466Z,5.40
2018-12-12T06:17:13.058Z,5.47
2018-12-12T06:19:42.536Z,5.40
2018-12-12T06:22:11.656Z,5.20
2018-12-12T06:24:40.717Z,5.23
2018-12-12T06:27:09.620Z,4.53
2018-12-12T06:29:38.228Z,8.03
2018-12-12T06:32:07.180Z,6.97
2018-12-12T06:34:36.086Z,4.53
2018-12-12T06:37:05.065Z,4.50
2018-12-12T06:39:33.978Z,5.20
2018-12-12T06:42:03.002Z,4.60
2018-12-12T06:44:32.027Z,5.00
2018-12-12T06:47:00.937Z,4.37
2018-12-12T06:49:31.128Z,4.17
2018-12-12T06:52:00.142Z,5.47
2018-12-12T06:54:28.779Z,7.33
2018-12-12T06:56:57.370Z,7.40
2018-12-12T06:59:25.869Z,9.43
2018-12-12T07:01:55.265Z,9.83
2018-12-12T07:04:23.826Z,8.97
2018-12-12T07:06:52.825Z,7.93
2018-12-12T07:09:21.768Z,7.03
2018-12-12T07:11:50.322Z,5.60
2018-12-12T07:14:18.967Z,5.43
2018-12-12T07:16:47.531Z,4.73
2018-12-12T07:19:16.502Z,4.03
2018-12-12T07:21:45.452Z,4.10
2018-12-12T07:24:14.488Z,4.00
2018-12-12T07:26:43.428Z,4.17
2018-12-12T07:29:19.797Z,4.80
2018-12-12T07:31:48.387Z,7.83
2018-12-12T07:34:16.921Z,19.63
2018-12-12T07:36:45.823Z,7.83
2018-12-12T07:39:17.849Z,7.60
2018-12-12T07:41:45.895Z,6.60
2018-12-12T07:44:16.869Z,4.60
2018-12-12T07:47:04.692Z,3.53
2018-12-12T07:49:35.903Z,3.53
2018-12-12T07:52:21.809Z,3.80
2018-12-12T07:54:50.932Z,4.17
2018-12-12T07:57:19.492Z,6.33
2018-12-12T07:59:48.415Z,7.97
2018-12-12T08:02:17.364Z,7.90
2018-12-12T08:04:46.301Z,7.67
2018-12-12T08:07:14.946Z,5.40
2018-12-12T08:09:43.876Z,5.50
2018-12-12T08:12:12.869Z,5.70
2018-12-12T08:14:41.732Z,6.23
2018-12-12T08:17:10.296Z,6.07
2018-12-12T08:19:40.317Z,10.53
2018-12-12T08:22:09.257Z,24.37
2018-12-12T08:24:38.383Z,17.97
2018-12-12T08:27:07.457Z,12.20
2018-12-12T08:29:36.406Z,10.65
2018-12-12T08:32:05.351Z,10.20
2018-12-12T08:34:34.412Z,11.20
2018-12-12T08:37:03.430Z,10.00
2018-12-12T08:39:32.373Z,9.70
2018-12-12T08:42:00.922Z,9.75
2018-12-12T08:44:29.815Z,10.10
2018-12-12T08:46:58.723Z,8.20
2018-12-12T08:49:27.653Z,7.90
2018-12-12T08:51:56.605Z,9.60
2018-12-12T08:54:25.561Z,8.57
2018-12-12T08:56:54.599Z,7.43
2018-12-12T08:59:23.609Z,6.70
2018-12-12T09:01:52.561Z,6.77
2018-12-12T09:04:21.657Z,6.50
2018-12-12T09:06:50.523Z,6.40
2018-12-12T09:09:19.367Z,6.00
2018-12-12T09:11:48.274Z,5.80
2018-12-12T09:14:17.254Z,6.23
2018-12-12T09:16:46.281Z,5.90
2018-12-12T09:19:14.827Z,5.73
2018-12-12T09:21:43.780Z,7.03
2018-12-12T09:24:12.695Z,5.90
2018-12-12T09:26:44.551Z,6.67
2018-12-12T09:29:13.473Z,6.28
2018-12-12T09:31:44.185Z,6.10
2018-12-12T09:34:15.341Z,5.67
2018-12-12T09:36:44.306Z,5.70
2018-12-12T09:39:13.281Z,6.07
2018-12-12T09:41:41.856Z,6.40
2018-12-12T09:44:10.956Z,5.85
2018-12-12T09:46:39.902Z,5.87
2018-12-12T09:49:08.846Z,6.77
2018-12-12T09:51:39.840Z,6.30
2018-12-12T09:54:10.823Z,6.28
2018-12-12T09:56:39.745Z,5.03
2018-12-12T09:59:08.773Z,4.77
2018-12-12T10:01:37.727Z,3.93
2018-12-12T10:04:06.695Z,3.70
2018-12-12T10:06:35.661Z,5.87
2018-12-12T10:09:06.984Z,4.63
2018-12-12T10:11:37.055Z,4.42
2018-12-12T10:14:05.944Z,4.30
2018-12-12T10:16:34.899Z,5.08
2018-12-12T10:19:03.856Z,4.97
2018-12-12T10:21:32.790Z,5.77
2018-12-12T10:24:01.337Z,5.73
2018-12-12T10:26:30.310Z,5.63
2018-12-12T10:28:59.338Z,5.33
2018-12-12T10:31:28.459Z,4.93
2018-12-12T10:33:57.357Z,4.53
2018-12-12T10:36:26.424Z,3.77
2018-12-12T10:38:55.313Z,3.80
2018-12-12T10:41:24.185Z,3.57
2018-12-12T10:43:53.184Z,3.73
2018-12-12T10:46:22.190Z,3.40
2018-12-12T10:48:51.148Z,3.27
2018-12-12T10:51:20.046Z,3.95
2018-12-12T10:53:48.632Z,3.67
2018-12-12T10:56:17.559Z,3.27
2018-12-12T10:58:46.486Z,3.43
2018-12-12T11:01:20.747Z,3.10
2018-12-12T11:03:49.685Z,2.73
2018-12-12T11:06:18.284Z,3.20
2018-12-12T11:08:47.237Z,2.97
2018-12-12T11:11:16.110Z,3.60
2018-12-12T11:13:44.877Z,5.85
2018-12-12T11:16:13.836Z,5.30
2018-12-12T11:18:42.796Z,5.80
2018-12-12T11:21:12.811Z,6.67
2018-12-12T11:23:41.872Z,7.90
2018-12-12T11:26:10.531Z,8.50
2018-12-12T11:28:39.452Z,8.93
2018-12-12T11:31:08.407Z,8.03
2018-12-12T11:33:37.434Z,8.03
2018-12-12T11:36:06.602Z,5.33
2018-12-12T11:38:35.704Z,7.33
2018-12-12T11:41:05.735Z,7.50
2018-12-12T11:43:34.925Z,8.43
2018-12-12T11:46:03.885Z,8.10
2018-12-12T11:48:32.971Z,8.30
2018-12-12T11:51:01.958Z,13.33
2018-12-12T11:53:30.961Z,7.37
2018-12-12T11:55:59.903Z,7.37
2018-12-12T11:58:28.491Z,5.67
2018-12-12T12:00:57.911Z,4.90
2018-12-12T12:03:28.188Z,4.73
2018-12-12T12:05:57.477Z,4.67
2018-12-12T12:08:26.480Z,4.67
2018-12-12T12:10:55.471Z,14.40
2018-12-12T12:13:27.528Z,5.83
2018-12-12T12:15:56.461Z,5.70
2018-12-12T12:18:29.113Z,4.90
2018-12-12T12:20:58.026Z,5.47
2018-12-12T12:23:27.183Z,5.77
2018-12-12T12:25:56.160Z,6.63
2018-12-12T12:28:25.112Z,7.53
2018-12-12T12:30:54.051Z,6.80
2018-12-12T12:33:23.014Z,7.33
2018-12-12T12:35:51.980Z,7.07
2018-12-12T12:38:20.969Z,7.37
2018-12-12T12:40:49.911Z,5.47
2018-12-12T12:43:18.795Z,6.80
2018-12-12T12:45:47.788Z,6.10
2018-12-12T12:48:16.708Z,6.30
2018-12-12T12:50:45.662Z,6.67
2018-12-12T12:53:14.663Z,6.63
2018-12-12T12:55:43.562Z,6.47
2018-12-12T12:58:12.502Z,5.77
2018-12-12T13:00:41.394Z,6.87
2018-12-12T13:03:10.329Z,6.20
2018-12-12T13:05:39.269Z,6.23
2018-12-12T13:08:09.283Z,6.00
2018-12-12T13:13:31.400Z,4.90
2018-12-12T13:16:00.522Z,4.50
2018-12-12T13:18:29.506Z,6.03
2018-12-12T13:20:58.452Z,4.67
2018-12-12T13:23:27.479Z,4.30
2018-12-12T13:25:56.501Z,4.67
2018-12-12T13:28:25.359Z,4.57
2018-12-12T13:30:54.389Z,4.00
2018-12-12T13:33:23.482Z,4.33
2018-12-12T13:35:52.383Z,3.83
2018-12-12T13:38:21.748Z,4.10
2018-12-12T13:40:50.923Z,3.13
2018-12-12T13:43:26.533Z,3.67
2018-12-12T13:45:55.462Z,3.40
2018-12-12T13:48:24.410Z,3.30
2018-12-12T13:50:53.348Z,3.07
2018-12-12T13:53:22.263Z,4.03
2018-12-12T13:55:51.189Z,3.30
2018-12-12T13:58:20.214Z,3.70
2018-12-12T14:00:49.213Z,3.67
2018-12-12T14:03:18.141Z,2.90
2018-12-12T14:05:47.143Z,3.40
2018-12-12T14:08:16.086Z,3.90
2018-12-12T14:10:45.226Z,3.47
2018-12-12T14:13:15.203Z,3.13
2018-12-12T14:15:44.247Z,3.60
2018-12-12T14:18:13.250Z,3.67
2018-12-12T14:20:42.402Z,3.30
2018-12-12T14:23:11.437Z,3.30
2018-12-12T14:25:40.490Z,3.40
2018-12-12T14:28:09.536Z,3.13
2018-12-12T14:30:38.517Z,3.47
2018-12-12T14:33:07.501Z,3.10
2018-12-12T14:35:36.522Z,5.53
2018-12-12T14:38:05.523Z,3.50
2018-12-12T14:40:34.464Z,4.00
2018-12-12T14:43:03.504Z,4.93
2018-12-12T14:45:32.500Z,5.40
2018-12-12T14:48:01.469Z,6.00
2018-12-12T14:50:30.460Z,6.37
2018-12-12T14:52:59.440Z,5.90
2018-12-12T14:55:28.508Z,4.60
2018-12-12T14:57:57.530Z,4.10
2018-12-12T15:00:26.596Z,4.10
2018-12-12T15:02:55.698Z,4.60
2018-12-12T15:05:24.767Z,4.17
2018-12-12T15:07:53.711Z,4.10
2018-12-12T15:10:22.899Z,4.37
2018-12-12T15:12:51.902Z,4.43
2018-12-12T15:15:20.926Z,4.67
2018-12-12T15:17:49.958Z,5.20
2018-12-12T15:20:19.004Z,5.53
2018-12-12T15:22:48.059Z,6.13
2018-12-12T15:25:17.133Z,5.80
2018-12-12T15:27:46.346Z,6.03
2018-12-12T15:30:17.697Z,6.90
2018-12-12T15:32:47.796Z,6.80
2018-12-12T15:35:16.960Z,6.30
2018-12-12T15:37:45.920Z,5.43
2018-12-12T15:40:14.925Z,5.50
2018-12-12T15:42:43.962Z,5.60
2018-12-12T15:45:12.951Z,6.10
2018-12-12T15:47:42.310Z,6.23
2018-12-12T15:50:10.945Z,5.87
2018-12-12T15:52:41.210Z,6.13
2018-12-12T15:55:10.232Z,6.20
2018-12-12T15:57:40.509Z,6.63
2018-12-12T16:00:10.162Z,7.20
2018-12-12T16:02:39.182Z,7.80
2018-12-12T16:05:07.837Z,7.40
2018-12-12T16:07:36.962Z,7.60
2018-12-12T16:10:06.941Z,7.10
2018-12-12T16:12:35.875Z,8.60
2018-12-12T16:15:04.654Z,12.90
2018-12-12T16:17:33.873Z,23.33
2018-12-12T16:20:02.489Z,20.27
2018-12-12T16:22:32.903Z,24.07
2018-12-12T16:25:02.487Z,32.50
2018-12-12T16:27:31.105Z,28.97
2018-12-12T16:30:00.162Z,53.07
2018-12-12T16:32:29.229Z,39.20
2018-12-12T16:34:58.295Z,29.93
2018-12-12T16:37:26.870Z,31.43
2018-12-12T16:39:55.500Z,33.40
2018-12-12T16:42:24.457Z,53.03
2018-12-12T16:44:55.486Z,37.57
2018-12-12T16:47:30.472Z,28.27
2018-12-12T16:49:59.455Z,31.27
2018-12-12T16:52:28.023Z,32.57
2018-12-12T16:54:56.653Z,34.93
2018-12-12T16:57:25.281Z,36.73
2018-12-12T16:59:54.291Z,34.27
2018-12-12T17:02:23.420Z,34.10
2018-12-12T17:04:51.976Z,34.10
2018-12-12T17:07:20.967Z,37.37
2018-12-12T17:09:49.881Z,37.75
2018-12-12T17:12:18.463Z,33.97
2018-12-12T17:14:47.375Z,35.00
2018-12-12T17:17:15.961Z,33.93
2018-12-12T17:19:44.990Z,32.67
2018-12-12T17:22:13.610Z,30.97
2018-12-12T17:24:42.210Z,28.67
2018-12-12T17:27:10.790Z,29.57
2018-12-12T17:29:39.344Z,30.83
2018-12-12T17:32:08.322Z,28.57
2018-12-12T17:34:37.433Z,25.07
2018-12-12T17:37:06.446Z,23.87
2018-12-12T17:39:35.415Z,22.53
2018-12-12T17:42:10.364Z,21.40
2018-12-12T17:44:40.512Z,22.10
2018-12-12T17:47:09.168Z,24.13
2018-12-12T17:49:38.139Z,23.17
2018-12-12T17:52:07.151Z,23.47
2018-12-12T17:54:36.573Z,21.90
2018-12-12T17:57:05.107Z,24.07
2018-12-12T17:59:34.233Z,22.57
2018-12-12T18:02:03.639Z,26.23
2018-12-12T18:04:49.410Z,46.80
2018-12-12T18:07:18.414Z,45.83
2018-12-12T18:09:46.997Z,38.33
2018-12-12T18:12:15.537Z,31.50
2018-12-12T18:14:44.428Z,41.20
2018-12-12T18:17:15.557Z,36.53
2018-12-12T18:19:44.502Z,32.90
2018-12-12T18:22:13.068Z,31.83
2018-12-12T18:24:43.727Z,34.33
2018-12-12T18:27:12.635Z,34.47
2018-12-12T18:29:41.233Z,32.80
2018-12-12T18:32:12.235Z,27.37
2018-12-12T18:35:03.159Z,45.70
2018-12-12T18:37:32.149Z,36.07
2018-12-12T18:40:00.702Z,38.93
2018-12-12T18:42:31.713Z,40.28
2018-12-12T18:45:00.369Z,35.53
2018-12-12T18:47:29.298Z,25.17
2018-12-12T18:49:58.285Z,34.87
2018-12-12T18:52:29.620Z,45.43
2018-12-12T18:55:03.754Z,39.23
2018-12-12T18:57:34.795Z,36.77
2018-12-12T19:00:03.875Z,33.17
2018-12-12T19:02:32.811Z,40.53
2018-12-12T19:05:01.953Z,36.73
2018-12-12T19:07:30.976Z,33.07
2018-12-12T19:09:59.631Z,29.67
2018-12-12T19:12:28.526Z,29.13
2018-12-12T19:15:03.751Z,34.00
2018-12-12T19:17:32.330Z,39.23
2018-12-12T19:20:01.313Z,38.27
2018-12-12T19:22:30.222Z,35.83
2018-12-12T19:24:59.532Z,30.23
2018-12-12T19:27:28.546Z,32.87
2018-12-12T19:29:57.465Z,30.63
2018-12-12T19:32:26.417Z,31.70
2018-12-12T19:34:55.011Z,30.57
2018-12-12T19:37:23.572Z,27.07
2018-12-12T19:39:52.553Z,29.97
2018-12-12T19:42:21.733Z,26.07
2018-12-12T19:44:50.741Z,35.57
2018-12-12T19:47:19.693Z,25.07
2018-12-12T19:49:48.258Z,31.40
2018-12-12T19:52:16.920Z,28.63
2018-12-12T19:54:45.871Z,27.67
2018-12-12T19:57:14.448Z,25.33
2018-12-12T19:59:43.037Z,24.53
2018-12-12T20:02:12.297Z,26.63
2018-12-12T20:04:40.844Z,23.07
2018-12-12T20:07:10.156Z,19.87
2018-12-12T20:09:39.165Z,19.03
2018-12-12T20:12:08.079Z,19.03
2018-12-12T20:14:37.108Z,20.00
2018-12-12T20:17:06.094Z,22.37
2018-12-12T20:19:34.664Z,21.50
2018-12-12T20:22:03.278Z,20.80
2018-12-12T20:24:32.230Z,25.37
2018-12-12T20:27:03.986Z,29.77
2018-12-12T20:29:32.976Z,36.53
2018-12-12T20:32:01.563Z,30.90
2018-12-12T20:34:30.485Z,25.00
2018-12-12T20:36:59.407Z,27.40
2018-12-12T20:39:28.437Z,28.33
2018-12-12T20:41:57.361Z,103.50
2018-12-12T20:44:26.337Z,72.57
2018-12-12T20:46:55.254Z,60.63
2018-12-12T20:49:24.173Z,35.50
2018-12-12T20:51:52.810Z,33.03
2018-12-12T20:54:21.392Z,29.47
2018-12-12T20:56:51.690Z,28.83
2018-12-12T20:59:20.748Z,35.70
2018-12-12T21:01:49.420Z,37.03
2018-12-12T21:04:18.325Z,33.43
2018-12-12T21:06:47.366Z,30.97
2018-12-12T21:09:17.376Z,32.30
2018-12-12T21:11:45.913Z,28.97
2018-12-12T21:14:14.810Z,44.17
2018-12-12T21:16:43.414Z,39.03
2018-12-12T21:19:12.029Z,48.33
2018-12-12T21:21:41.009Z,40.10
2018-12-12T21:24:09.923Z,52.03
2018-12-12T21:26:38.795Z,47.03
2018-12-12T21:29:07.324Z,34.97
2018-12-12T21:31:35.852Z,26.80
2018-12-12T21:34:04.411Z,25.03
2018-12-12T21:36:33.376Z,25.27
2018-12-12T21:39:02.321Z,25.57
2018-12-12T21:41:32.386Z,23.47
2018-12-12T21:44:01.331Z,24.37
2018-12-12T21:46:30.413Z,23.80
2018-12-12T21:48:59.001Z,22.63
2018-12-12T21:51:27.942Z,24.73
2018-12-12T21:53:56.880Z,25.23
2018-12-12T21:56:26.941Z,25.30
2018-12-12T21:58:55.886Z,23.17
2018-12-12T22:01:24.827Z,25.53
2018-12-12T22:03:53.384Z,25.60
2018-12-12T22:06:22.387Z,30.50
2018-12-12T22:08:51.335Z,27.60
2018-12-12T22:11:20.245Z,32.53
2018-12-12T22:13:49.209Z,29.13
2018-12-12T22:16:17.795Z,26.27
2018-12-12T22:18:46.402Z,24.53
2018-12-12T22:21:15.327Z,23.67
2018-12-12T22:23:44.305Z,24.83
2018-12-12T22:26:13.301Z,22.33
2018-12-12T22:28:41.938Z,24.63
2018-12-12T22:31:11.690Z,23.13
2018-12-12T22:33:40.672Z,24.20
2018-12-12T22:36:14.106Z,25.33
2018-12-12T22:38:40.621Z,28.53
2018-12-12T22:41:09.212Z,28.70
2018-12-12T22:43:38.267Z,24.57
2018-12-12T22:46:07.226Z,25.00
2018-12-12T22:48:36.158Z,24.80
2018-12-12T22:51:04.664Z,21.57
2018-12-12T22:53:33.208Z,21.67
2018-12-12T22:56:02.234Z,24.53
2018-12-12T22:58:31.152Z,26.27
2018-12-12T23:01:07.673Z,25.03
2018-12-12T23:03:36.927Z,27.03
2018-12-12T23:06:05.467Z,27.73
2018-12-12T23:08:34.002Z,32.83
2018-12-12T23:11:02.949Z,31.67
2018-12-12T23:13:31.881Z,31.27
2018-12-12T23:16:00.817Z,31.23
2018-12-12T23:18:29.394Z,28.13
2018-12-12T23:20:57.941Z,25.60
2018-12-12T23:23:26.845Z,25.47
2018-12-12T23:25:55.884Z,24.30
2018-12-12T23:28:24.798Z,25.97
2018-12-12T23:30:53.400Z,25.57
2018-12-12T23:33:21.956Z,27.77
2018-12-12T23:35:50.864Z,28.73
2018-12-12T23:38:19.856Z,25.90
2018-12-12T23:40:48.800Z,23.73
2018-12-12T23:43:17.348Z,23.57
2018-12-12T23:45:46.292Z,40.90
2018-12-12T23:48:15.258Z,59.80
2018-12-12T23:50:44.173Z,41.20
2018-12-12T23:53:13.126Z,29.13
2018-12-12T23:55:42.163Z,31.37
2018-12-12T23:58:11.075Z,31.13
